Data for 07/01/2017

Time Sea-Level Adjusted Pressure Absolute Pressure Temperature Relative Humidity Dew Point   
(mb) (inHg) (mb) (inHg) (C) (F) (%) (C) (F)
00:05 1021 30.15 850 25.1 14.1 57.3 54 5.1 41.2
00:10 1021 30.15 850 25.1 14 57.2 54 4.9 40.9
00:15 1021 30.15 850 25.1 14.1 57.4 52 4.5 40.2
00:20 1021 30.15 850 25.1 14.2 57.5 55 5.4 41.6
00:25 1021 30.15 850 25.1 13.8 56.8 55 4.9 40.9
00:30 1021 30.15 850 25.1 13.8 56.8 54 4.8 40.6
00:35 1021 30.15 850 25.1 13.7 56.7 56 5.3 41.5
00:40 1021 30.15 850 25.1 13.4 56.1 57 5 41
00:45 1021 30.15 850 25.1 13.6 56.4 55 4.7 40.5
00:50 1021 30.15 850 25.1 13.7 56.7 55 4.9 40.9
00:55 1021 30.15 850 25.1 13.5 56.2 57 5.2 41.3
01:00 1021 30.15 850 25.1 13.2 55.8 57 5.1 41.1
01:05 1021 30.15 850 25.1 13 55.4 58 5.1 41.2
01:10 1021 30.15 850 25.1 12.8 55.1 59 5 41.1
01:15 1021 30.15 850 25.1 12.7 54.9 58 4.8 40.7
01:20 1020 30.12 850 25.1 12.9 55.2 58 4.9 40.8
01:25 1021 30.15 850 25.1 12.9 55.2 59 5.1 41.1
01:30 1021 30.15 850 25.1 12.9 55.2 57 4.7 40.4
01:35 1021 30.15 850 25.1 13.3 56 54 4.4 39.9
01:40 1021 30.15 850 25.1 13.6 56.5 55 4.8 40.6
01:45 1021 30.15 850 25.1 13.4 56.1 56 4.8 40.7
01:50 1021 30.15 850 25.1 13.3 55.9 57 5 40.9
01:55 1021 30.15 850 25.1 13.1 55.6 56 4.7 40.4
02:00 1021 30.15 850 25.1 13.1 55.7 57 4.9 40.8
02:05 1021 30.15 850 25.1 12.9 55.1 58 4.9 40.8
02:10 1021 30.15 850 25.1 12.7 54.9 59 4.9 40.8
02:15 1020 30.12 850 25.1 12.6 54.6 59 4.8 40.6
02:20 1020 30.12 850 25.1 12.8 55 58 4.7 40.5
02:25 1020 30.12 850 25.1 12.8 55.1 57 4.5 40.2
02:30 1020 30.12 850 25.1 12.8 55.1 57 4.6 40.3
02:35 1020 30.12 850 25.1 12.8 55 58 4.7 40.5
02:40 1020 30.12 850 25.1 12.6 54.6 59 4.8 40.6
02:45 1020 30.12 850 25.1 12.6 54.6 59 4.8 40.6
02:50 1020 30.12 850 25.1 12.5 54.4 60 4.9 40.8
02:55 1020 30.12 850 25.1 12.5 54.6 59 4.8 40.6
03:00 1020 30.12 850 25.1 12.5 54.5 60 5 40.9
03:05 1020 30.12 850 25.1 12.1 53.7 61 4.8 40.6
03:10 1020 30.12 850 25.1 11.9 53.4 60 4.3 39.8
03:15 1020 30.12 850 25.1 12.2 53.9 60 4.6 40.3
03:20 1020 30.12 850 25.1 12.2 53.9 59 4.4 39.9
03:25 1020 30.12 849 25.07 12.3 54.1 59 4.7 40.4
03:30 1020 30.12 849 25.07 12.2 53.9 60 4.7 40.4
03:35 1020 30.12 849 25.07 11.9 53.5 61 4.8 40.6
03:40 1020 30.12 849 25.07 11.7 53 63 4.9 40.7
03:45 1020 30.12 849 25.07 11.5 52.7 63 4.6 40.3
03:50 1020 30.12 850 25.1 11.7 53.1 61 4.5 40.1
03:55 1020 30.12 850 25.1 12 53.5 61 4.6 40.3
04:00 1020 30.12 850 25.1 11.9 53.3 61 4.6 40.2
04:05 1020 30.12 850 25.1 12.1 53.8 60 4.6 40.2
04:10 1020 30.12 850 25.1 12.2 53.9 59 4.5 40
04:15 1020 30.12 850 25.1 12.4 54.3 58 4.3 39.8
04:20 1021 30.15 850 25.1 12.9 55.1 56 4.4 40
04:25 1021 30.15 850 25.1 13.2 55.8 54 4.2 39.5
04:30 1021 30.15 850 25.1 13.5 56.4 54 4.4 40
04:35 1021 30.15 850 25.1 13.2 55.7 55 4.5 40.1
04:40 1021 30.15 850 25.1 13 55.4 55 4.4 39.8
04:45 1021 30.15 850 25.1 13 55.3 55 4.2 39.6
04:50 1021 30.15 850 25.1 12.9 55.2 55 4.2 39.6
04:55 1021 30.15 850 25.1 13 55.4 54 4.1 39.3
05:00 1021 30.15 850 25.1 12.9 55.2 55 4.2 39.6
05:05 1021 30.15 850 25.1 12.6 54.7 54 3.7 38.7
05:10 1021 30.15 850 25.1 12.7 54.8 55 3.9 39.1
05:15 1021 30.15 850 25.1 12.9 55.2 54 3.8 38.9
05:20 1021 30.15 850 25.1 12.9 55.2 55 4.1 39.4
05:25 1021 30.15 850 25.1 12.8 55 55 4 39.3
05:30 1021 30.15 850 25.1 13 55.3 56 4.4 39.9
05:35 1021 30.15 850 25.1 13 55.5 56 4.5 40.1
05:40 1021 30.15 850 25.1 13.1 55.6 56 4.6 40.3
05:45 1021 30.15 850 25.1 13.1 55.6 56 4.7 40.4
05:50 1021 30.15 850 25.1 13 55.5 57 4.9 40.8
05:55 1021 30.15 850 25.1 13.2 55.8 57 5 41
06:00 1021 30.15 850 25.1 13.4 56.1 57 5 41.1
06:05 1021 30.15 850 25.1 13.3 56 58 5.2 41.3
06:10 1021 30.15 850 25.1 13.4 56.2 56 5 41
06:15 1021 30.15 850 25.1 13.4 56 57 5.2 41.3
06:20 1021 30.15 850 25.1 13.4 56.1 58 5.5 41.8
06:25 1021 30.15 850 25.1 13.6 56.5 58 5.5 42
06:30 1021 30.15 850 25.1 13.9 57 57 5.6 42.1
06:35 1021 30.15 850 25.1 14.1 57.4 57 5.7 42.3
06:40 1021 30.15 850 25.1 14.4 58 56 5.8 42.4
06:45 1021 30.15 850 25.1 14.8 58.7 55 5.9 42.6
06:50 1021 30.15 850 25.1 15.2 59.4 54 6.1 43
06:55 1021 30.15 850 25.1 15.6 60.2 52 6 42.8
07:00 1021 30.15 850 25.1 16 60.8 51 6 42.7
07:05 1021 30.15 850 25.1 16.3 61.3 50 5.8 42.5
07:10 1021 30.15 850 25.1 17 62.6 48 6 42.8
07:15 1021 30.15 850 25.1 17.4 63.3 47 6.1 43
07:20 1021 30.15 850 25.1 17.5 63.5 46 6 42.7
07:25 1021 30.15 850 25.1 18 64.4 44 5.8 42.5
07:30 1021 30.15 850 25.1 18.4 65.2 42 5.4 41.8
07:35 1021 30.15 850 25.1 18.6 65.5 41 5.2 41.3
07:40 1021 30.15 850 25.1 18.5 65.3 40 4.9 40.8
07:45 1021 30.15 850 25.1 19.2 66.6 40 5.4 41.7
07:50 1021 30.15 850 25.1 19.7 67.5 37 4.8 40.6
07:55 1021 30.15 850 25.1 20.1 68.2 39 5.9 42.5
08:00 1021 30.15 850 25.1 20.2 68.4 38 5.7 42.2
08:05 1021 30.15 850 25.1 20.2 68.4 38 5.5 41.9
08:10 1021 30.15 850 25.1 21 69.9 35 5.4 41.7
08:15 1021 30.15 850 25.1 21.4 70.6 35 5.6 42
08:20 1021 30.15 850 25.1 20.4 68.7 37 5.6 42
08:25 1021 30.15 850 25.1 20.2 68.4 37 5.3 41.6
08:30 1021 30.15 850 25.1 20.5 68.8 36 5.2 41.3
08:35 1021 30.15 850 25.1 20.9 69.5 33 4.3 39.8
08:40 1021 30.15 850 25.1 21.9 71.5 32 4.6 40.2
08:45 1021 30.15 850 25.1 20.9 69.6 37 5.8 42.4
08:50 1021 30.15 850 25.1 21.2 70.2 33 4.5 40.1
08:55 1021 30.15 850 25.1 21.9 71.4 32 4.8 40.7
09:00 1021 30.15 850 25.1 22.1 71.9 33 5.5 41.9
09:05 1021 30.15 850 25.1 22.2 72 33 5.5 41.8
09:10 1021 30.15 850 25.1 22.4 72.2 33 5.3 41.6
09:15 1021 30.15 850 25.1 22.5 72.5 33 5.9 42.5
09:20 1021 30.15 850 25.1 22.5 72.5 34 5.9 42.6
09:25 1021 30.15 850 25.1 22.7 72.9 32 5.5 41.9
09:30 1021 30.15 850 25.1 22.4 72.3 33 5.8 42.4
09:35 1021 30.15 850 25.1 22.5 72.5 33 5.6 42.1
09:40 1020 30.12 850 25.1 23.1 73.5 32 5.7 42.3
09:45 1020 30.12 850 25.1 23.2 73.7 34 6.5 43.7
09:50 1020 30.12 850 25.1 22.4 72.3 34 5.9 42.6
09:55 1020 30.12 850 25.1 22 71.5 33 5.2 41.4
10:00 1020 30.12 850 25.1 22.1 71.8 33 5.1 41.2
10:05 1020 30.12 850 25.1 23.1 73.6 32 5.5 41.9
10:10 1020 30.12 850 25.1 23.6 74.5 32 6.1 43
10:15 1020 30.12 849 25.07 23.4 74.2 32 6.1 43.1
10:20 1020 30.12 849 25.07 23.6 74.4 31 5.4 41.8
10:25 1020 30.12 849 25.07 23.7 74.7 33 6.7 44
10:30 1020 30.12 849 25.07 23.7 74.7 31 5.6 42.1
10:35 1020 30.12 849 25.07 24.9 76.8 29 5.7 42.3
10:40 1020 30.12 849 25.07 24.6 76.2 31 6.6 43.8
10:45 1020 30.12 849 25.07 24.4 75.8 31 6.4 43.5
10:50 1020 30.12 849 25.07 24 75.3 32 6.3 43.4
10:55 1020 30.12 849 25.07 24.9 76.8 29 6.1 42.9
11:00 1020 30.12 849 25.07 25.4 77.8 28 6.1 43
11:05 1020 30.12 849 25.07 25.3 77.5 30 6.9 44.5
11:10 1020 30.12 849 25.07 23.9 75.1 31 5.9 42.7
11:15 1020 30.12 849 25.07 24.6 76.2 30 6 42.9
11:20 1020 30.12 849 25.07 25 77 29 6 42.8
11:25 1020 30.12 849 25.07 25.3 77.6 28 5.9 42.5
11:30 1020 30.12 849 25.07 25.1 77.2 29 6.2 43.2
11:35 1020 30.12 849 25.07 26.3 79.4 28 6.6 43.8
11:40 1020 30.12 849 25.07 26.6 79.8 26 5.9 42.7
11:45 1020 30.12 849 25.07 26.5 79.6 26 5.8 42.4
11:50 1019 30.09 849 25.07 25.8 78.4 25 4.5 40.1
11:55 1019 30.09 849 25.07 25.9 78.7 24 3.9 39
12:00 1019 30.09 849 25.07 26 78.7 25 4.6 40.2
12:05 1019 30.09 849 25.07 25.4 77.6 23 3.3 37.9
12:10 1019 30.09 848 25.04 26.2 79.1 25 4.7 40.4
12:15 1019 30.09 848 25.04 27 80.6 21 3.4 38.1
12:20 1019 30.09 848 25.04 27 80.7 22 3.6 38.4
12:25 1019 30.09 848 25.04 26.5 79.6 22 3.3 38
12:30 1019 30.09 848 25.04 27.1 80.7 21 3.2 37.8
12:35 1019 30.09 848 25.04 27 80.7 23 4.6 40.2
12:40 1019 30.09 848 25.04 27.2 81 22 3.8 38.8
12:45 1019 30.09 848 25.04 27.7 81.9 23 4.7 40.5
12:50 1019 30.09 848 25.04 27.8 82 22 4.5 40
12:55 1019 30.09 848 25.04 28.3 83 21 4.4 40
13:00 1019 30.09 848 25.04 28.2 82.7 22 4.6 40.2
13:05 1019 30.09 848 25.04 28.1 82.6 20 3.5 38.3
13:10 1019 30.09 848 25.04 27.9 82.1 22 4.6 40.2
13:15 1019 30.09 848 25.04 27.9 82.1 20 2.9 37.3
13:20 1019 30.09 848 25.04 28.3 82.9 20 3.4 38.1
13:25 1019 30.09 848 25.04 29.4 84.9 17 2.2 36
13:30 1019 30.09 848 25.04 29.4 85 18 3 37.5
13:35 1019 30.09 848 25.04 29.8 85.6 17 2.2 36
13:40 1019 30.09 848 25.04 29.1 84.4 17 2.1 35.8
13:45 1019 30.09 848 25.04 29.2 84.5 18 2.9 37.3
13:50 1019 30.09 848 25.04 29.4 84.9 18 2.7 36.8
13:55 1018 30.06 848 25.04 29.2 84.6 19 3.4 38.1
14:00 1019 30.09 848 25.04 29.6 85.3 17 2.6 36.6
14:05 1019 30.09 848 25.04 29.3 84.8 18 2.9 37.2
14:10 1018 30.06 848 25.04 29.5 85.1 17 2.4 36.3
14:15 1018 30.06 848 25.04 30 85.9 16 1.9 35.4
14:20 1018 30.06 848 25.04 30.5 86.9 15 1.5 34.7
14:25 1018 30.06 848 25.04 29.4 84.8 18 2.9 37.2
14:30 1018 30.06 847 25.01 29.4 84.8 17 2.3 36.2
14:35 1018 30.06 847 25.01 29.6 85.3 17 2.3 36.2
14:40 1018 30.06 847 25.01 30 86 17 2.4 36.4
14:45 1018 30.06 847 25.01 29.5 85 17 2.4 36.3
14:50 1018 30.06 847 25.01 29.5 85.2 16 1.8 35.3
14:55 1018 30.06 847 25.01 30.1 86.1 15 1.2 34.2
15:00 1018 30.06 847 25.01 29.5 85.1 16 1 33.9
15:05 1018 30.06 847 25.01 29.3 84.8 17 2.1 35.8
15:10 1018 30.06 847 25.01 29.4 84.8 16 1.2 34.2
15:15 1018 30.06 847 25.01 29.9 85.8 15 0.7 33.2
15:20 1018 30.06 847 25.01 30.1 86.1 15 0.9 33.6
15:25 1018 30.06 847 25.01 29.9 85.9 15 0.8 33.4
15:30 1018 30.06 847 25.01 30.2 86.3 14 0.6 33
15:35 1018 30.06 847 25.01 30.4 86.8 14 0.8 33.4
15:40 1018 30.06 847 25.01 30 86 16 1.4 34.5
15:45 1018 30.06 847 25.01 30.3 86.5 15 0.9 33.6
15:50 1018 30.06 847 25.01 30.3 86.5 15 1.5 34.7
15:55 1018 30.06 847 25.01 29.6 85.2 15 0.9 33.6
16:00 1018 30.06 847 25.01 29.6 85.2 16 1.8 35.3
16:05 1018 30.06 847 25.01 28.8 83.9 17 1.5 34.7
16:10 1018 30.06 847 25.01 28.2 82.8 17 1.3 34.3
16:15 1018 30.06 847 25.01 28.8 83.8 17 1.7 35
16:20 1018 30.06 847 25.01 28.8 83.9 16 0.9 33.6
16:25 1018 30.06 847 25.01 29.8 85.7 16 2 35.5
16:30 1018 30.06 847 25.01 29.5 85 17 1.8 35.3
16:35 1018 30.06 847 25.01 29.2 84.5 17 2 35.6
16:40 1018 30.06 847 25.01 29 84.3 16 1.3 34.4
16:45 1018 30.06 847 25.01 29.6 85.3 16 1.5 34.7
16:50 1018 30.06 847 25.01 30 86 16 1.8 35.2
16:55 1018 30.06 847 25.01 30.1 86.2 16 1.7 35.1
17:00 1018 30.06 847 25.01 29.8 85.6 17 2.1 35.7
17:05 1018 30.06 847 25.01 29.8 85.6 17 2.1 35.8
17:10 1018 30.06 847 25.01 29.5 85 18 2.7 36.8
17:15 1018 30.06 847 25.01 28.3 82.9 18 1.9 35.4
17:20 1018 30.06 847 25.01 28.5 83.3 19 2.8 37.1
17:25 1018 30.06 847 25.01 28.7 83.7 19 3.1 37.6
17:30 1018 30.06 847 25.01 28.7 83.7 19 2.9 37.2
17:35 1018 30.06 847 25.01 28.6 83.5 18 2.5 36.4
17:40 1018 30.06 847 25.01 28.3 83 19 2.8 37.1
17:45 1018 30.06 847 25.01 28.4 83 18 2.1 35.8
17:50 1018 30.06 847 25.01 28 82.5 18 2.2 35.9
17:55 1018 30.06 847 25.01 27.7 81.9 18 1.9 35.5
18:00 1018 30.06 847 25.01 27.7 81.9 18 1.9 35.4
18:05 1018 30.06 847 25.01 27.6 81.7 19 2.1 35.7
18:10 1018 30.06 847 25.01 27.7 81.9 19 2.1 35.8
18:15 1018 30.06 847 25.01 27.7 81.8 20 2.8 37
18:20 1018 30.06 847 25.01 27.8 82 20 3.2 37.7
18:25 1018 30.06 847 25.01 27.6 81.6 19 1.8 35.3
18:30 1018 30.06 847 25.01 27.6 81.6 19 2 35.6
18:35 1018 30.06 847 25.01 27.7 81.8 19 2 35.6
18:40 1018 30.06 847 25.01 27.6 81.6 19 2.1 35.7
18:45 1018 30.06 847 25.01 27.4 81.3 19 2.1 35.8
18:50 1018 30.06 847 25.01 27.3 81.1 18 1.6 34.8
18:55 1018 30.06 847 25.01 27.2 81 19 1.8 35.3
19:00 1018 30.06 847 25.01 27.1 80.8 19 2 35.6
19:05 1018 30.06 847 25.01 27.1 80.7 21 3.3 37.9
19:10 1018 30.06 847 25.01 27 80.5 25 5.7 42.3
19:15 1018 30.06 847 25.01 26 78.9 32 8.3 46.9
19:20 1018 30.06 847 25.01 25.2 77.3 33 8 46.4
19:25 1018 30.06 847 25.01 24.8 76.6 34 8.1 46.5
19:30 1018 30.06 847 25.01 24.4 75.9 34 7.8 46
19:35 1018 30.06 847 25.01 24.3 75.7 35 8.1 46.5
19:40 1018 30.06 847 25.01 24.1 75.4 34 7.4 45.4
19:45 1018 30.06 847 25.01 24.2 75.5 35 7.9 46.2
19:50 1018 30.06 847 25.01 24 75.2 36 8.4 47.1
19:55 1018 30.06 847 25.01 23.7 74.6 42 10.1 50.2
20:00 1018 30.06 847 25.01 23.2 73.8 41 9.3 48.7
20:05 1018 30.06 847 25.01 22.8 73 42 9.5 49.1
20:10 1018 30.06 847 25.01 22.6 72.7 43 9.6 49.2
20:15 1018 30.06 847 25.01 22.2 71.9 43 9.1 48.4
20:20 1018 30.06 847 25.01 21.8 71.2 43 8.9 48.1
20:25 1018 30.06 848 25.04 21.8 71.2 38 6.9 44.3
20:30 1018 30.06 848 25.04 22.1 71.7 41 8.4 47.2
20:35 1019 30.09 848 25.04 22 71.6 41 8.3 47
20:40 1019 30.09 848 25.04 22.1 71.8 40 8.2 46.7
20:45 1019 30.09 848 25.04 22.2 71.9 40 8.2 46.7
20:50 1019 30.09 848 25.04 22.3 72.2 40 8.1 46.6
20:55 1019 30.09 848 25.04 22.5 72.5 39 8.1 46.6
21:00 1019 30.09 848 25.04 22.7 72.8 34 6.2 43.2
21:05 1019 30.09 848 25.04 22.9 73.2 33 5.9 42.7
21:10 1019 30.09 849 25.07 22.8 73.1 35 6.6 43.9
21:15 1020 30.12 849 25.07 22.5 72.6 36 7 44.6
21:20 1020 30.12 849 25.07 22.2 71.9 35 6.1 43
21:25 1020 30.12 849 25.07 21.8 71.2 35 5.8 42.4
21:30 1020 30.12 849 25.07 21.6 70.9 34 5.3 41.5
21:35 1020 30.12 849 25.07 21.5 70.7 34 5.4 41.7
21:40 1020 30.12 849 25.07 21.2 70.1 36 5.5 41.9
21:45 1020 30.12 849 25.07 20.9 69.6 36 5.3 41.6
21:50 1020 30.12 849 25.07 20.7 69.3 37 5.5 41.9
21:55 1020 30.12 849 25.07 20.5 68.8 37 5.6 42
22:00 1020 30.12 849 25.07 20.2 68.4 40 6.3 43.3
22:05 1020 30.12 849 25.07 19.9 67.9 40 6.2 43.1
22:10 1020 30.12 849 25.07 19.8 67.6 41 6.2 43.1
22:15 1020 30.12 849 25.07 19.6 67.3 40 6 42.7
22:20 1020 30.12 849 25.07 19.5 67.1 40 5.7 42.3
22:25 1020 30.12 849 25.07 19.6 67.2 40 5.7 42.2
22:30 1020 30.12 849 25.07 19.6 67.3 40 5.7 42.3
22:35 1020 30.12 849 25.07 19.6 67.3 39 5.5 41.9
22:40 1020 30.12 849 25.07 19.6 67.2 40 5.9 42.6
22:45 1020 30.12 849 25.07 19.4 66.9 42 6.3 43.3
22:50 1020 30.12 849 25.07 18.8 65.8 45 6.6 43.9
22:55 1020 30.12 849 25.07 18.3 64.9 46 6.6 43.8
23:00 1020 30.12 849 25.07 18 64.5 47 6.8 44.2
23:05 1020 30.12 849 25.07 17.7 63.9 49 7.1 44.7
23:10 1020 30.12 849 25.07 17.5 63.4 50 6.9 44.5
23:15 1020 30.12 849 25.07 17.3 63.2 48 6.4 43.4
23:20 1020 30.12 849 25.07 17.5 63.5 48 6.6 43.8
23:25 1020 30.12 849 25.07 17.4 63.3 48 6.3 43.4
23:30 1020 30.12 849 25.07 17.5 63.5 48 6.4 43.5
23:35 1020 30.12 849 25.07 17.5 63.6 46 6.1 42.9
23:40 1020 30.12 849 25.07 17.9 64.1 45 5.8 42.4
23:45 1020 30.12 849 25.07 18.1 64.6 45 6.2 43.1
23:50 1020 30.12 849 25.07 17.9 64.1 47 6.5 43.7
23:55 1020 30.12 849 25.07 17.5 63.4 47 6.2 43.2
24:00 1020 30.12 849 25.07 17.5 63.4 46 5.9 42.6